createdAt,value
2023-03-06T00:04:17.243Z,27.13
2023-03-06T00:07:29.318Z,36.70
2023-03-06T00:10:09.259Z,32.58
2023-03-06T00:12:57.427Z,47.15
2023-03-06T00:15:41.953Z,23.05
2023-03-06T00:18:18.578Z,33.38
2023-03-06T00:24:00.781Z,31.67
2023-03-06T00:26:44.324Z,28.65
2023-03-06T00:29:40.233Z,47.88
2023-03-06T00:32:50.225Z,38.17
2023-03-06T00:38:35.095Z,40.40
2023-03-06T00:41:13.200Z,47.90
2023-03-06T00:43:44.401Z,41.90
2023-03-06T00:46:19.226Z,32.30
2023-03-06T00:48:58.361Z,19.42
2023-03-06T00:51:32.588Z,38.65
2023-03-06T00:54:04.030Z,44.15
2023-03-06T00:56:45.344Z,30.20
2023-03-06T00:59:29.287Z,41.72
2023-03-06T01:02:04.260Z,55.42
2023-03-06T01:04:35.030Z,33.08
2023-03-06T01:07:08.624Z,52.17
2023-03-06T01:09:45.651Z,31.33
2023-03-06T01:12:21.364Z,19.73
2023-03-06T01:14:55.063Z,22.92
2023-03-06T01:17:26.606Z,28.27
2023-03-06T01:19:59.641Z,57.45
2023-03-06T01:22:30.799Z,63.97
2023-03-06T01:25:02.335Z,31.77
2023-03-06T01:27:35.242Z,28.27
2023-03-06T01:30:07.788Z,68.03
2023-03-06T01:32:38.271Z,56.13
2023-03-06T01:35:09.707Z,60.60
2023-03-06T01:37:42.502Z,30.20
2023-03-06T01:40:15.575Z,33.38
2023-03-06T01:42:48.055Z,50.13
2023-03-06T01:45:19.026Z,37.08
2023-03-06T01:47:52.817Z,52.45
2023-03-06T01:50:24.804Z,48.58
2023-03-06T01:52:59.712Z,59.70
2023-03-06T01:55:36.782Z,47.22
2023-03-06T01:58:15.215Z,68.18
2023-03-06T02:00:46.403Z,27.38
2023-03-06T02:03:22.090Z,30.00
2023-03-06T02:05:53.824Z,34.92
2023-03-06T02:08:26.268Z,30.10
2023-03-06T02:11:16.677Z,30.08
2023-03-06T02:13:50.082Z,44.95
2023-03-06T02:16:26.433Z,52.72
2023-03-06T02:18:58.176Z,52.63
2023-03-06T02:21:33.855Z,50.53
2023-03-06T02:24:32.368Z,44.25
2023-03-06T02:27:05.778Z,57.22
2023-03-06T02:29:38.250Z,46.92
2023-03-06T02:32:09.923Z,45.75
2023-03-06T02:34:40.473Z,16.33
2023-03-06T02:37:13.696Z,22.33
2023-03-06T02:39:49.457Z,23.20
2023-03-06T02:42:24.593Z,28.98
2023-03-06T02:45:00.190Z,61.25
2023-03-06T02:47:32.285Z,26.70
2023-03-06T02:50:09.044Z,39.85
2023-03-06T02:52:41.680Z,50.42
2023-03-06T02:55:13.143Z,45.35
2023-03-06T02:57:44.697Z,43.25
2023-03-06T03:00:16.523Z,48.20
2023-03-06T03:02:48.429Z,27.95
2023-03-06T03:05:19.672Z,31.63
2023-03-06T03:07:55.535Z,36.15
2023-03-06T03:10:27.826Z,36.00
2023-03-06T03:13:00.689Z,34.83
2023-03-06T03:15:32.361Z,47.15
2023-03-06T03:18:03.593Z,44.72
2023-03-06T03:20:35.746Z,46.28
2023-03-06T03:23:06.739Z,46.78
2023-03-06T03:25:40.368Z,36.58
2023-03-06T03:28:12.022Z,44.25
2023-03-06T03:30:44.099Z,30.80
2023-03-06T03:33:15.941Z,34.33
2023-03-06T03:35:49.591Z,36.10
2023-03-06T03:38:23.309Z,65.72
2023-03-06T03:41:00.071Z,42.05
2023-03-06T03:43:31.471Z,30.00
2023-03-06T03:46:05.825Z,25.60
2023-03-06T03:48:36.823Z,53.90
2023-03-06T03:51:12.282Z,58.33
2023-03-06T03:53:49.818Z,42.88
2023-03-06T03:56:27.117Z,43.47
2023-03-06T03:59:04.122Z,32.50
2023-03-06T04:01:41.555Z,41.97
2023-03-06T04:04:12.460Z,82.30
2023-03-06T04:06:49.567Z,33.20
2023-03-06T04:09:25.806Z,42.47
2023-03-06T04:11:58.730Z,42.17
2023-03-06T04:14:29.420Z,66.20
2023-03-06T04:16:59.617Z,49.22
2023-03-06T04:19:31.756Z,50.38
2023-03-06T04:22:07.001Z,65.97
2023-03-06T04:24:42.647Z,25.15
2023-03-06T04:27:13.602Z,24.05
2023-03-06T04:29:44.671Z,60.25
2023-03-06T04:32:15.970Z,43.47
2023-03-06T04:34:51.860Z,17.10
2023-03-06T04:37:25.905Z,35.03
2023-03-06T04:39:58.039Z,19.70
2023-03-06T04:42:30.160Z,42.47
2023-03-06T04:45:02.543Z,54.42
2023-03-06T04:47:37.251Z,45.92
2023-03-06T04:50:09.961Z,32.08
2023-03-06T04:52:42.675Z,18.52
2023-03-06T04:55:17.206Z,20.17
2023-03-06T04:57:49.992Z,19.73
2023-03-06T05:00:26.905Z,20.05
2023-03-06T05:02:59.117Z,21.30
2023-03-06T05:05:31.608Z,23.55
2023-03-06T05:08:04.670Z,17.75
2023-03-06T05:10:36.672Z,14.45
2023-03-06T05:13:08.562Z,29.50
2023-03-06T05:15:45.852Z,55.10
2023-03-06T05:18:16.872Z,26.85
2023-03-06T05:20:48.763Z,36.67
2023-03-06T05:23:19.913Z,26.40
2023-03-06T05:25:52.272Z,28.17
2023-03-06T05:28:26.379Z,38.47
2023-03-06T05:30:57.805Z,34.50
2023-03-06T05:33:28.915Z,59.45
2023-03-06T05:35:59.881Z,52.85
2023-03-06T05:38:30.738Z,28.25
2023-03-06T05:41:01.497Z,43.47
2023-03-06T05:43:32.632Z,61.22
2023-03-06T05:46:07.518Z,47.50
2023-03-06T05:48:39.696Z,84.88
2023-03-06T05:51:10.576Z,71.10
2023-03-06T05:53:43.679Z,45.92
2023-03-06T05:56:14.287Z,52.15
2023-03-06T05:58:45.287Z,63.63
2023-03-06T06:01:21.107Z,44.50
2023-03-06T06:03:53.299Z,61.33
2023-03-06T06:06:24.233Z,59.70
2023-03-06T06:08:55.410Z,61.63
2023-03-06T06:11:27.492Z,34.78
2023-03-06T06:13:59.346Z,69.97
2023-03-06T06:16:30.597Z,47.58
2023-03-06T06:19:02.875Z,89.63
2023-03-06T06:21:34.378Z,91.20
2023-03-06T06:24:06.265Z,89.75
2023-03-06T06:26:37.738Z,76.47
2023-03-06T06:29:09.829Z,63.63
2023-03-06T06:31:45.066Z,69.00
2023-03-06T06:34:16.218Z,69.38
2023-03-06T06:36:47.622Z,29.10
2023-03-06T06:39:20.311Z,25.10
2023-03-06T06:42:14.690Z,17.55
2023-03-06T06:44:47.017Z,18.02
2023-03-06T06:47:22.898Z,21.00
2023-03-06T06:49:57.431Z,15.70
2023-03-06T06:52:27.666Z,19.63
2023-03-06T06:54:59.128Z,15.93
2023-03-06T06:57:30.263Z,9.60
2023-03-06T07:00:01.540Z,11.40
2023-03-06T07:02:34.417Z,5.97
2023-03-06T07:07:59.984Z,8.75
2023-03-06T07:10:32.674Z,7.15
2023-03-06T07:13:06.310Z,7.13
2023-03-06T07:21:38.372Z,7.22
2023-03-06T07:24:28.832Z,13.45
2023-03-06T07:27:06.084Z,11.32
2023-03-06T07:29:45.501Z,6.28
2023-03-06T07:32:16.911Z,2.88
2023-03-06T07:34:48.788Z,5.93
2023-03-06T07:37:19.613Z,7.20
2023-03-06T07:39:53.837Z,4.45
2023-03-06T07:42:27.218Z,6.25
2023-03-06T07:45:18.883Z,8.75
2023-03-06T07:47:54.771Z,4.90
2023-03-06T07:50:29.581Z,2.50
2023-03-06T07:53:03.234Z,2.38
2023-03-06T07:55:36.047Z,1.00
2023-03-06T07:58:09.324Z,2.47
2023-03-06T08:00:43.290Z,2.47
2023-03-06T08:03:18.935Z,1.50
2023-03-06T08:05:50.535Z,1.05
2023-03-06T08:08:22.190Z,1.35
2023-03-06T08:10:53.864Z,1.73
2023-03-06T08:13:25.767Z,3.30
2023-03-06T08:15:56.989Z,1.27
2023-03-06T08:18:28.226Z,2.35
2023-03-06T08:21:08.303Z,2.58
2023-03-06T08:23:40.018Z,1.52
2023-03-06T08:26:14.394Z,1.77
2023-03-06T08:28:46.026Z,2.05
2023-03-06T08:31:32.227Z,2.08
2023-03-06T08:34:06.986Z,1.08
2023-03-06T08:36:38.808Z,1.38
2023-03-06T08:39:12.845Z,2.88
2023-03-06T08:41:45.772Z,3.03
2023-03-06T08:44:20.436Z,2.97
2023-03-06T08:46:59.114Z,0.77
2023-03-06T08:49:30.023Z,1.80
2023-03-06T08:52:20.386Z,1.92
2023-03-06T08:55:00.485Z,1.63
2023-03-06T08:57:41.314Z,1.77
2023-03-06T09:00:20.214Z,1.30
2023-03-06T09:02:56.191Z,2.17
2023-03-06T09:05:38.693Z,0.75
2023-03-06T09:08:18.402Z,1.25
2023-03-06T09:10:52.040Z,1.55
2023-03-06T09:13:45.056Z,5.78
2023-03-06T09:16:16.631Z,5.20
2023-03-06T09:18:48.534Z,7.88
2023-03-06T09:21:18.852Z,1.02
2023-03-06T09:23:50.112Z,0.82
2023-03-06T09:26:32.843Z,6.15
2023-03-06T09:29:11.817Z,1.40
2023-03-06T09:31:42.926Z,1.13
2023-03-06T09:34:15.926Z,1.80
2023-03-06T09:36:56.401Z,1.58
2023-03-06T09:39:30.336Z,1.98
2023-03-06T09:42:03.535Z,1.80
2023-03-06T09:44:40.206Z,3.10
2023-03-06T09:47:55.328Z,1.70
2023-03-06T09:50:43.798Z,1.00
2023-03-06T09:53:18.528Z,1.30
2023-03-06T09:55:58.410Z,2.25
2023-03-06T09:58:36.548Z,1.67
2023-03-06T10:01:33.691Z,4.20
2023-03-06T10:04:41.485Z,2.58
2023-03-06T10:07:46.356Z,1.95
2023-03-06T10:10:31.186Z,2.78
2023-03-06T10:13:09.873Z,2.72
2023-03-06T10:15:45.744Z,2.03
2023-03-06T10:18:20.660Z,1.88
2023-03-06T10:21:16.940Z,2.58
2023-03-06T10:23:50.096Z,1.65
2023-03-06T10:26:34.018Z,4.10
2023-03-06T10:29:28.908Z,1.10
2023-03-06T10:32:46.171Z,2.70
2023-03-06T10:35:24.134Z,2.03
2023-03-06T10:38:02.477Z,2.65
2023-03-06T10:41:04.618Z,1.45
2023-03-06T10:43:38.582Z,1.15
2023-03-06T10:46:12.327Z,1.63
2023-03-06T10:48:44.295Z,0.65
2023-03-06T10:51:23.086Z,3.10
2023-03-06T10:54:01.805Z,1.95
2023-03-06T10:56:38.006Z,1.27
2023-03-06T10:59:15.352Z,1.25
2023-03-06T11:01:55.095Z,0.82
2023-03-06T11:04:41.291Z,0.90
2023-03-06T11:07:24.174Z,3.35
2023-03-06T11:10:02.030Z,1.50
2023-03-06T11:12:43.072Z,2.30
2023-03-06T11:15:19.097Z,1.90
2023-03-06T11:18:11.530Z,4.32
2023-03-06T11:21:25.971Z,1.65
2023-03-06T11:24:01.631Z,2.22
2023-03-06T11:26:42.429Z,2.85
2023-03-06T11:29:30.534Z,3.70
2023-03-06T11:32:17.798Z,3.50
2023-03-06T11:35:23.065Z,1.80
2023-03-06T11:38:01.585Z,7.05
2023-03-06T11:40:45.425Z,7.28
2023-03-06T11:43:34.636Z,8.20
2023-03-06T11:46:16.826Z,4.60
2023-03-06T11:49:02.420Z,5.82
2023-03-06T11:51:43.984Z,6.57
2023-03-06T11:54:19.135Z,8.27
2023-03-06T11:57:08.079Z,5.22
2023-03-06T12:00:20.492Z,5.47
2023-03-06T12:03:16.107Z,5.05
2023-03-06T12:06:07.442Z,4.35
2023-03-06T12:08:52.934Z,3.03
2023-03-06T12:11:50.130Z,6.28
2023-03-06T12:14:30.449Z,3.25
2023-03-06T12:17:22.718Z,5.28
2023-03-06T12:20:40.109Z,5.68
2023-03-06T12:23:28.298Z,4.45
2023-03-06T12:26:15.147Z,7.32
2023-03-06T12:29:09.630Z,3.03
2023-03-06T12:31:57.372Z,5.07
2023-03-06T12:34:47.341Z,4.20
2023-03-06T12:37:29.184Z,4.10
2023-03-06T12:40:42.357Z,3.17
2023-03-06T12:43:16.623Z,4.45
2023-03-06T12:45:48.890Z,5.15
2023-03-06T12:48:30.642Z,2.90
2023-03-06T12:51:03.718Z,6.30
2023-03-06T12:53:36.533Z,7.15
2023-03-06T12:56:10.516Z,92.40
2023-03-06T12:58:54.016Z,112.95
2023-03-06T13:01:45.967Z,157.63
2023-03-06T13:04:43.441Z,119.50
2023-03-06T13:07:53.100Z,117.85
2023-03-06T13:10:42.493Z,88.00
2023-03-06T13:13:31.193Z,90.75
2023-03-06T13:16:04.306Z,97.38
2023-03-06T13:18:39.091Z,78.88
2023-03-06T13:21:45.883Z,99.55
2023-03-06T13:24:31.345Z,121.82
2023-03-06T13:27:08.899Z,108.57
2023-03-06T13:29:45.712Z,103.22
2023-03-06T13:32:19.176Z,119.50
2023-03-06T13:34:52.879Z,81.65
2023-03-06T13:37:27.589Z,62.75
2023-03-06T13:40:05.193Z,24.75
2023-03-06T13:42:39.620Z,31.15
2023-03-06T13:45:24.165Z,28.52
2023-03-06T13:50:52.924Z,22.30
2023-03-06T13:54:04.194Z,23.08
2023-03-06T13:57:35.407Z,38.78
2023-03-06T14:01:22.944Z,57.42
2023-03-06T14:10:15.199Z,47.13
2023-03-06T14:13:05.504Z,25.63
2023-03-06T14:16:02.945Z,39.80
2023-03-06T14:18:56.266Z,97.78
2023-03-06T14:21:38.267Z,67.43
2023-03-06T14:24:24.549Z,35.80
2023-03-06T14:27:19.090Z,12.23
2023-03-06T14:30:26.431Z,13.70
2023-03-06T14:33:09.516Z,9.02
2023-03-06T14:35:41.123Z,12.50
2023-03-06T14:38:31.037Z,9.95
2023-03-06T14:41:08.572Z,6.97
2023-03-06T14:43:56.198Z,26.58
2023-03-06T14:46:59.814Z,50.35
2023-03-06T14:50:35.599Z,35.92
2023-03-06T14:53:18.424Z,29.85
2023-03-06T14:56:05.881Z,17.40
2023-03-06T14:58:36.478Z,23.80
2023-03-06T15:01:17.323Z,42.95
2023-03-06T15:03:52.778Z,43.63
2023-03-06T15:06:46.152Z,30.05
2023-03-06T15:09:23.658Z,47.30
2023-03-06T15:12:11.849Z,58.10
2023-03-06T15:14:45.744Z,43.33
2023-03-06T15:17:28.508Z,58.20
2023-03-06T15:20:02.384Z,26.52
2023-03-06T15:22:46.535Z,23.35
2023-03-06T15:25:34.577Z,22.42
2023-03-06T15:28:27.311Z,40.83
2023-03-06T15:31:22.088Z,37.38
2023-03-06T15:34:15.790Z,38.72
2023-03-06T15:36:50.225Z,39.80
2023-03-06T15:39:43.137Z,34.38
2023-03-06T15:42:22.577Z,26.35
2023-03-06T15:45:05.160Z,27.20
2023-03-06T15:47:35.830Z,40.97
2023-03-06T15:50:06.556Z,37.63
2023-03-06T15:52:36.593Z,30.55
2023-03-06T15:55:07.685Z,34.50
2023-03-06T15:57:39.173Z,46.72
2023-03-06T16:00:27.430Z,42.00
2023-03-06T16:03:00.897Z,33.00
2023-03-06T16:05:32.464Z,43.50
2023-03-06T16:08:05.610Z,31.73
2023-03-06T16:10:40.079Z,47.35
2023-03-06T16:13:17.173Z,51.50
2023-03-06T16:15:52.812Z,53.97
2023-03-06T16:18:24.079Z,47.88
2023-03-06T16:20:55.029Z,28.95
2023-03-06T16:23:27.978Z,31.33
2023-03-06T16:25:59.755Z,56.28
2023-03-06T16:28:30.867Z,48.78
2023-03-06T16:31:06.865Z,38.03
2023-03-06T16:33:41.162Z,78.20
2023-03-06T16:36:26.122Z,53.70
2023-03-06T16:39:11.601Z,54.70
2023-03-06T16:41:43.392Z,69.75
2023-03-06T16:44:19.239Z,63.60
2023-03-06T16:46:52.538Z,60.30
2023-03-06T16:49:26.858Z,75.32
2023-03-06T16:54:37.513Z,57.45
2023-03-06T16:57:11.272Z,77.13
2023-03-06T16:59:49.122Z,61.85
2023-03-06T17:02:38.528Z,70.35
2023-03-06T17:05:49.382Z,23.52
2023-03-06T17:08:19.804Z,66.68
2023-03-06T17:10:50.599Z,24.02
2023-03-06T17:13:22.254Z,29.95
2023-03-06T17:16:01.405Z,36.65
2023-03-06T17:18:32.188Z,26.15
2023-03-06T17:21:03.203Z,136.27
2023-03-06T17:23:33.902Z,79.53
2023-03-06T17:26:24.756Z,126.80
2023-03-06T17:28:57.326Z,62.53
2023-03-06T17:31:30.884Z,83.97
2023-03-06T17:34:02.192Z,72.88
2023-03-06T17:36:33.500Z,54.35
2023-03-06T17:39:05.407Z,36.15
2023-03-06T17:41:35.838Z,29.25
2023-03-06T17:44:06.186Z,42.42
2023-03-06T17:46:38.084Z,37.33
2023-03-06T17:49:08.213Z,72.95
2023-03-06T17:51:37.982Z,101.53
2023-03-06T17:54:08.323Z,42.75
2023-03-06T17:56:40.312Z,57.22
2023-03-06T17:59:11.467Z,65.30
2023-03-06T18:01:41.766Z,78.55
2023-03-06T18:04:13.791Z,51.50
2023-03-06T18:06:44.006Z,28.38
2023-03-06T18:09:14.026Z,49.75
2023-03-06T18:11:45.126Z,81.80
2023-03-06T18:14:15.527Z,65.53
2023-03-06T18:16:45.569Z,46.08
2023-03-06T18:19:16.717Z,36.28
2023-03-06T18:21:49.364Z,88.88
2023-03-06T18:24:19.751Z,62.85
2023-03-06T18:26:53.077Z,50.95
2023-03-06T18:29:26.814Z,43.55
2023-03-06T18:32:01.369Z,26.02
2023-03-06T18:34:45.442Z,29.58
2023-03-06T18:37:20.103Z,21.83
2023-03-06T18:39:56.750Z,34.40
2023-03-06T18:42:28.418Z,31.88
2023-03-06T18:45:05.442Z,71.50
2023-03-06T18:47:36.825Z,32.55
2023-03-06T18:50:09.177Z,61.05
2023-03-06T18:52:42.181Z,44.13
2023-03-06T18:55:15.725Z,39.50
2023-03-06T18:57:46.679Z,24.52
2023-03-06T19:00:18.830Z,28.85
2023-03-06T19:02:50.389Z,70.38
2023-03-06T19:05:24.769Z,46.20
2023-03-06T19:07:55.879Z,62.63
2023-03-06T19:10:31.111Z,29.48
2023-03-06T19:13:05.035Z,57.00
2023-03-06T19:15:37.220Z,60.58
2023-03-06T19:18:09.555Z,67.50
2023-03-06T19:20:44.453Z,75.55
2023-03-06T19:23:17.977Z,79.32
2023-03-06T19:26:19.008Z,49.78
2023-03-06T19:28:57.795Z,58.78
2023-03-06T19:31:35.626Z,59.78
2023-03-06T19:34:09.844Z,38.75
2023-03-06T19:36:45.595Z,42.30
2023-03-06T19:39:23.099Z,32.38
2023-03-06T19:42:01.456Z,37.00
2023-03-06T19:44:41.308Z,32.33
2023-03-06T19:47:11.854Z,44.28
2023-03-06T19:49:43.817Z,32.38
2023-03-06T19:52:14.797Z,26.95
2023-03-06T19:54:46.712Z,55.47
2023-03-06T19:57:25.466Z,67.43
2023-03-06T20:00:00.220Z,55.28
2023-03-06T20:02:30.954Z,37.35
2023-03-06T20:05:01.896Z,87.07
2023-03-06T20:07:32.308Z,41.97
2023-03-06T20:10:05.367Z,35.25
2023-03-06T20:12:36.038Z,50.22
2023-03-06T20:15:08.233Z,71.13
2023-03-06T20:17:45.617Z,51.80
2023-03-06T20:20:17.864Z,70.82
2023-03-06T20:22:48.510Z,46.67
2023-03-06T20:25:19.718Z,69.65
2023-03-06T20:27:51.306Z,38.75
2023-03-06T20:30:21.560Z,44.35
2023-03-06T20:32:53.020Z,28.02
2023-03-06T20:35:25.201Z,52.20
2023-03-06T20:37:57.359Z,65.97
2023-03-06T20:40:29.335Z,54.38
2023-03-06T20:43:02.437Z,45.80
2023-03-06T20:45:33.907Z,85.18
2023-03-06T20:48:05.235Z,42.00
2023-03-06T20:50:36.927Z,68.78
2023-03-06T20:53:08.095Z,79.40
2023-03-06T20:55:40.369Z,62.53
2023-03-06T20:58:11.639Z,102.65
2023-03-06T21:00:42.777Z,86.63
2023-03-06T21:03:13.401Z,83.55
2023-03-06T21:05:44.497Z,71.75
2023-03-06T21:08:20.656Z,132.00
2023-03-06T21:10:54.322Z,80.60
2023-03-06T21:13:24.705Z,113.07
2023-03-06T21:15:55.584Z,96.65
2023-03-06T21:18:26.763Z,68.60
2023-03-06T21:20:58.039Z,85.53
2023-03-06T21:23:29.466Z,77.40
2023-03-06T21:26:00.619Z,11.98
2023-03-06T21:28:31.352Z,63.95
2023-03-06T21:31:04.252Z,43.55
2023-03-06T21:33:40.918Z,18.30
2023-03-06T21:36:30.661Z,13.35
2023-03-06T21:39:33.980Z,14.60
2023-03-06T21:42:15.507Z,54.30
2023-03-06T21:44:59.731Z,66.15
2023-03-06T21:47:50.980Z,40.20
2023-03-06T21:50:26.489Z,39.83
2023-03-06T21:53:52.605Z,17.95
2023-03-06T21:56:50.850Z,17.55
2023-03-06T22:08:16.749Z,24.25
2023-03-06T22:17:44.880Z,34.50
2023-03-06T22:20:26.859Z,28.20
2023-03-06T22:23:20.219Z,22.25
2023-03-06T22:32:03.896Z,12.45
2023-03-06T22:34:49.014Z,10.98
2023-03-06T22:37:54.017Z,9.88
2023-03-06T22:40:30.976Z,23.27
2023-03-06T22:43:14.435Z,74.72
2023-03-06T22:46:22.435Z,81.20
2023-03-06T22:49:09.734Z,66.05
2023-03-06T22:51:49.406Z,51.30
2023-03-06T22:54:26.633Z,66.10
2023-03-06T22:56:59.076Z,70.05
2023-03-06T22:59:40.157Z,53.38
2023-03-06T23:02:12.155Z,65.05
2023-03-06T23:04:44.882Z,58.92
2023-03-06T23:07:41.383Z,81.97
2023-03-06T23:10:18.154Z,95.97
2023-03-06T23:13:07.478Z,94.53
2023-03-06T23:15:59.766Z,79.82
2023-03-06T23:18:48.424Z,93.20
2023-03-06T23:21:38.819Z,127.95
2023-03-06T23:24:28.829Z,68.25
2023-03-06T23:27:03.182Z,55.53
2023-03-06T23:29:36.564Z,40.45
2023-03-06T23:32:17.635Z,29.08
2023-03-06T23:34:51.132Z,15.80
2023-03-06T23:37:23.858Z,12.63
2023-03-06T23:39:59.374Z,13.93
2023-03-06T23:42:32.523Z,8.57
2023-03-06T23:45:05.195Z,6.65
2023-03-06T23:47:37.504Z,25.92
2023-03-06T23:50:12.282Z,48.25
2023-03-06T23:52:48.594Z,76.90
2023-03-06T23:55:24.300Z,135.75
2023-03-06T23:57:57.746Z,108.93
